This is the latest recevied weather packets stored in our database for station/object I0UVN-10. If no packets are shown the sender has not sent any weather packets the latest 10 day(s).
| Time | Temp. | Humidity | Pressure | Rain* | Wind** | Luminosity | Snow |
|---|---|---|---|---|---|---|---|
| 1788278412 | 30° C | 42% | 1021 hPa | - | - | - | - |
| 1788277247 | 30.56° C | 43% | 1021 hPa | - | - | - | - |
| 1788277212 | 30.56° C | 43% | 1021 hPa | - | - | - | - |
| 1788276045 | 30° C | 43% | 1020.9 hPa | - | - | - | - |
| 1788276025 | 30° C | 43% | 1020.9 hPa | - | - | - | - |
| 1788275938 | 30.56° C | 46% | 1021.2 hPa | - | - | - | - |
| 1788274847 | 30.56° C | 43% | 1021 hPa | - | - | - | - |
| 1788274812 | 30.56° C | 43% | 1021 hPa | - | - | - | - |
| 1788274236 | 30.56° C | 50% | 1021.3 hPa | - | - | - | - |
| 1788273651 | 30.56° C | 44% | 1021 hPa | - | - | - | - |
| 1788273612 | 30.56° C | 44% | 1021 hPa | - | - | - | - |
| 1788272553 | 30.56° C | 48% | 1021.3 hPa | - | - | - | - |
| 1788272446 | 30° C | 44% | 1021 hPa | - | - | - | - |
| 1788272411 | 30° C | 44% | 1021 hPa | - | - | - | - |
| 1788271243 | 30.56° C | 47% | 1021 hPa | - | - | - | - |
| 1788271211 | 30.56° C | 47% | 1021 hPa | - | - | - | - |
| 1788270011 | 30.56° C | 47% | 1021.1 hPa | - | - | - | - |
| 1788268842 | 30.56° C | 46% | 1021.2 hPa | - | - | - | - |
| 1788268811 | 30.56° C | 46% | 1021.2 hPa | - | - | - | - |
| 1788267642 | 30.56° C | 48% | 1021.2 hPa | - | - | - | - |
| 1788267611 | 30.56° C | 48% | 1021.2 hPa | - | - | - | - |
| 1788266466 | 30.56° C | 50% | 1021.3 hPa | - | - | - | - |
| 1788266411 | 30.56° C | 50% | 1021.3 hPa | - | - | - | - |
| 1788265242 | 30.56° C | 50% | 1021.3 hPa | - | - | - | - |
| 1788265210 | 30.56° C | 50% | 1021.3 hPa | - | - | - | - |
* Rain since midnight (hover to see other rain measurements)
** Current wind speed in m/s (hover to see current wind gust speed)